Time;durP1;ratioP1;P1;durP2;ratioP2;P2;SDS_P1;SDS_P2;PMS_P1;PMS_P2;Temp;Humidity;BMP_temperature;BMP_pressure;BME280_temperature;BME280_humidity;BME280_pressure;Samples;Min_cycle;Max_cycle;Signal;HPM_P1;HPM_P2
2022/04/14 00:01:25;;;;;;;17.05;5.35;;;10.90;99.90;;;;;;5009829;28;20045;-84
2022/04/14 00:04:20;;;;;;;13.07;5.95;;;10.80;99.90;;;;;;5007212;28;20451;-83
2022/04/14 00:07:08;;;;;;;14.82;5.57;;;10.70;99.90;;;;;;5016235;28;20050;-83
2022/04/14 00:09:57;;;;;;;13.20;5.95;;;10.70;99.90;;;;;;5016758;28;20057;-82
2022/04/14 00:12:48;;;;;;;13.55;6.50;;;10.70;99.90;;;;;;5011650;28;20049;-82
2022/04/14 00:15:36;;;;;;;15.63;6.70;;;10.70;99.90;;;;;;5013881;28;20049;-83
2022/04/14 00:18:28;;;;;;;13.65;7.32;;;10.70;99.90;;;;;;5009518;28;20045;-83
2022/04/14 00:21:15;;;;;;;18.55;6.90;;;10.70;99.90;;;;;;5004752;28;20053;-83
2022/04/14 00:24:03;;;;;;;14.93;7.68;;;10.70;99.90;;;;;;5011942;28;20054;-83
2022/04/14 00:26:50;;;;;;;19.38;7.45;;;10.70;99.90;;;;;;5007064;28;20491;-84
2022/04/14 00:29:38;;;;;;;19.52;7.80;;;10.70;99.90;;;;;;5015052;28;20041;-83
2022/04/14 00:32:25;;;;;;;14.52;7.32;;;10.80;99.90;;;;;;5003634;28;20062;-84
2022/04/14 00:35:12;;;;;;;20.05;7.47;;;10.90;99.90;;;;;;5006030;28;20374;-84
2022/04/14 00:38:00;;;;;;;16.08;7.00;;;11.10;99.90;;;;;;5015040;28;20140;-84
2022/04/14 00:40:49;;;;;;;16.08;7.20;;;11.20;99.90;;;;;;5013607;28;20049;-82
2022/04/14 00:43:38;;;;;;;18.65;7.65;;;11.30;99.90;;;;;;5004169;28;20061;-84
2022/04/14 00:46:26;;;;;;;14.23;6.15;;;11.40;99.90;;;;;;5009708;28;20076;-82
2022/04/14 00:49:13;;;;;;;16.92;5.90;;;11.40;99.90;;;;;;5001914;28;20541;-83
2022/04/14 00:52:01;;;;;;;13.18;5.90;;;11.40;99.90;;;;;;5012108;28;20149;-82
2022/04/14 00:54:48;;;;;;;12.07;5.63;;;11.50;99.90;;;;;;5003553;28;20061;-83
2022/04/14 00:57:36;;;;;;;10.35;4.55;;;11.50;99.90;;;;;;5007723;28;20046;-83
2022/04/14 01:00:23;;;;;;;12.55;4.05;;;11.80;99.90;;;;;;5005457;28;20347;-82
2022/04/14 01:03:11;;;;;;;20.02;4.13;;;11.90;99.90;;;;;;5013993;28;20455;-82
2022/04/14 01:05:59;;;;;;;9.85;3.90;;;12.00;99.90;;;;;;4998094;28;20046;-83
2022/04/14 01:11:56;;;;;;;12.02;4.38;;;12.10;99.90;;;;;;5002914;28;20366;-82
2022/04/14 01:14:46;;;;;;;13.80;4.50;;;12.10;99.90;;;;;;5004686;28;20095;-82
2022/04/14 01:17:38;;;;;;;12.60;5.38;;;12.00;99.90;;;;;;5010065;28;20498;-84
2022/04/14 01:20:26;;;;;;;13.90;6.03;;;11.80;99.90;;;;;;4998258;28;20132;-84
2022/04/14 01:23:24;;;;;;;14.65;6.20;;;11.50;99.90;;;;;;5003685;28;20042;-83
2022/04/14 01:26:12;;;;;;;18.15;6.40;;;11.20;99.90;;;;;;4998973;28;20042;-82
2022/04/14 01:29:02;;;;;;;13.27;6.68;;;10.90;99.90;;;;;;4997632;28;20339;-82
2022/04/14 01:31:50;;;;;;;13.55;6.15;;;10.60;99.90;;;;;;4997351;28;20046;-82
2022/04/14 01:34:40;;;;;;;10.02;5.72;;;10.40;99.90;;;;;;5011512;28;20056;-82
2022/04/14 01:37:27;;;;;;;13.38;5.78;;;10.30;99.90;;;;;;5003952;28;20070;-82
2022/04/14 01:40:14;;;;;;;9.82;5.78;;;10.10;99.90;;;;;;5012822;28;20104;-82
2022/04/14 01:43:04;;;;;;;11.70;5.95;;;10.00;99.90;;;;;;5000706;28;20042;-82
2022/04/14 01:45:53;;;;;;;13.73;5.75;;;9.90;99.90;;;;;;5009438;28;20042;-81
2022/04/14 01:48:41;;;;;;;10.63;5.75;;;9.90;99.90;;;;;;5006969;28;20053;-81
2022/04/14 01:51:28;;;;;;;8.25;4.97;;;9.80;99.90;;;;;;5012463;28;20133;-81
2022/04/14 01:54:16;;;;;;;13.32;5.65;;;9.70;99.90;;;;;;5014820;28;20093;-81
2022/04/14 01:57:06;;;;;;;26.05;5.88;;;9.70;99.90;;;;;;5011652;28;20068;-83
2022/04/14 01:59:55;;;;;;;17.08;5.80;;;9.70;99.90;;;;;;5014084;28;20064;-83
2022/04/14 02:02:42;;;;;;;10.93;5.53;;;9.70;99.90;;;;;;5012722;28;20034;-83
2022/04/14 02:05:30;;;;;;;19.33;6.55;;;9.70;99.90;;;;;;5007785;28;20341;-83
2022/04/14 02:08:19;;;;;;;10.98;5.30;;;9.70;99.90;;;;;;5008407;28;20079;-83
2022/04/14 02:11:07;;;;;;;15.95;5.63;;;9.70;99.90;;;;;;5006115;28;20050;-82
2022/04/14 02:13:54;;;;;;;9.93;5.28;;;9.70;99.90;;;;;;5012787;28;20046;-83
2022/04/14 02:16:41;;;;;;;11.88;5.45;;;9.80;99.90;;;;;;5006209;28;20042;-83
2022/04/14 02:19:29;;;;;;;15.27;5.50;;;9.80;99.90;;;;;;5012815;28;20060;-83
2022/04/14 02:22:16;;;;;;;14.95;6.13;;;9.80;99.90;;;;;;5013235;28;20057;-82
2022/04/14 02:25:06;;;;;;;16.58;6.43;;;9.90;99.90;;;;;;5010658;28;20050;-84
2022/04/14 02:27:53;;;;;;;17.45;5.57;;;10.00;99.90;;;;;;5004377;28;20108;-83
2022/04/14 02:30:43;;;;;;;12.50;5.70;;;10.10;99.90;;;;;;5013327;28;20054;-82
2022/04/14 02:33:30;;;;;;;14.55;5.68;;;10.20;99.90;;;;;;5013118;28;20378;-82
2022/04/14 02:36:19;;;;;;;13.05;6.05;;;10.10;99.90;;;;;;5014964;28;20069;-82
2022/04/14 02:39:06;;;;;;;11.48;5.43;;;10.10;99.90;;;;;;5009587;28;20129;-81
2022/04/14 02:41:54;;;;;;;13.90;6.05;;;10.00;99.90;;;;;;5011693;28;20096;-81
2022/04/14 02:44:43;;;;;;;14.60;6.30;;;10.00;99.90;;;;;;5012611;28;20089;-82
2022/04/14 02:47:30;;;;;;;11.35;6.15;;;10.00;99.90;;;;;;5001675;28;20034;-81
2022/04/14 02:50:20;;;;;;;11.68;6.13;;;10.00;99.90;;;;;;5010695;28;20060;-81
2022/04/14 02:53:07;;;;;;;9.90;5.75;;;10.00;99.90;;;;;;4993694;28;20104;-82
2022/04/14 02:55:55;;;;;;;14.00;5.82;;;10.10;99.90;;;;;;5010925;28;20049;-81
2022/04/14 02:58:46;;;;;;;15.15;6.10;;;10.10;99.90;;;;;;4996639;28;20046;-81
2022/04/14 03:01:33;;;;;;;14.85;6.18;;;10.00;99.90;;;;;;5018178;28;20057;-81
2022/04/14 03:04:22;;;;;;;17.23;7.75;;;9.90;99.90;;;;;;5013335;28;20058;-80
2022/04/14 03:07:10;;;;;;;16.95;7.70;;;9.90;99.90;;;;;;5008906;28;20054;-80
2022/04/14 03:09:57;;;;;;;20.50;8.18;;;9.90;99.90;;;;;;5009421;28;20131;-81
2022/04/14 03:12:51;;;;;;;14.15;7.07;;;10.00;99.90;;;;;;5005590;28;20079;-82
2022/04/14 03:15:38;;;;;;;14.63;7.93;;;10.00;99.90;;;;;;5001652;28;20403;-82
2022/04/14 03:18:28;;;;;;;13.60;7.03;;;9.90;99.90;;;;;;5007023;28;20200;-82
2022/04/14 03:21:15;;;;;;;22.52;7.45;;;9.80;99.90;;;;;;5009601;28;20045;-82
2022/04/14 03:24:03;;;;;;;13.73;7.15;;;9.70;99.90;;;;;;5011098;28;20139;-82
2022/04/14 03:26:50;;;;;;;15.75;6.97;;;9.60;99.90;;;;;;5005844;28;20058;-82
2022/04/14 03:29:39;;;;;;;19.83;8.10;;;9.60;99.90;;;;;;4997446;28;20930;-82
2022/04/14 03:32:30;;;;;;;18.38;8.15;;;9.60;99.90;;;;;;5009556;28;20053;-82
2022/04/14 03:35:18;;;;;;;14.80;7.57;;;9.50;99.90;;;;;;5012272;28;20196;-82
2022/04/14 03:38:06;;;;;;;17.50;8.13;;;9.50;99.90;;;;;;5014589;28;20054;-82
2022/04/14 03:41:13;;;;;;;19.67;11.82;;;9.50;99.90;;;;;;5004157;28;20098;-83
2022/04/14 03:44:02;;;;;;;23.67;10.82;;;9.50;99.90;;;;;;5013670;28;20610;-83
2022/04/14 03:46:50;;;;;;;23.60;11.35;;;9.60;99.90;;;;;;5015444;28;20045;-83
2022/04/14 03:49:37;;;;;;;25.17;11.70;;;9.60;99.90;;;;;;5016459;28;20415;-84
2022/04/14 03:52:24;;;;;;;35.22;18.15;;;9.60;99.90;;;;;;5011024;28;20046;-82
2022/04/14 03:55:12;;;;;;;31.80;16.45;;;9.60;99.90;;;;;;5015657;28;20050;-83
2022/04/14 03:57:59;;;;;;;25.42;13.98;;;9.80;99.90;;;;;;5018140;28;20216;-82
2022/04/14 04:00:53;;;;;;;28.00;12.13;;;9.70;99.90;;;;;;5018182;28;20088;-82
2022/04/14 04:03:41;;;;;;;26.92;12.35;;;9.60;99.90;;;;;;5015325;28;20057;-81
2022/04/14 04:06:29;;;;;;;22.55;12.52;;;9.50;99.90;;;;;;5012824;28;20078;-81
2022/04/14 04:09:16;;;;;;;31.38;16.80;;;9.40;99.90;;;;;;5012731;28;20072;-82
2022/04/14 04:12:04;;;;;;;28.38;14.82;;;9.40;99.90;;;;;;5012959;28;20046;-81
2022/04/14 04:14:51;;;;;;;28.88;15.05;;;9.30;99.90;;;;;;5005011;28;20046;-83
2022/04/14 04:17:39;;;;;;;30.88;16.88;;;9.20;99.90;;;;;;5006470;28;20049;-83
2022/04/14 04:28:39;;;;;;;32.13;16.35;;;9.20;99.90;;;;;;5013507;28;20030;-81
2022/04/14 04:31:30;;;;;;;29.80;16.00;;;9.20;99.90;;;;;;5011278;28;20042;-82
2022/04/14 04:34:20;;;;;;;37.00;17.20;;;9.30;99.90;;;;;;5007482;28;20057;-83
2022/04/14 04:37:07;;;;;;;30.65;17.92;;;9.20;99.90;;;;;;5007181;28;20144;-81
2022/04/14 04:39:55;;;;;;;35.28;20.58;;;9.30;99.90;;;;;;5011531;28;20085;-85
2022/04/14 04:51:17;;;;;;;41.85;23.67;;;9.40;99.90;;;;;;4973131;28;20038;-82
2022/04/14 04:54:18;;;;;;;46.78;24.30;;;9.50;99.90;;;;;;4988100;28;20125;-83
2022/04/14 04:57:05;;;;;;;49.22;27.52;;;9.60;99.90;;;;;;4998234;28;20058;-83
2022/04/14 04:59:52;;;;;;;58.60;32.75;;;9.70;99.90;;;;;;5004743;28;20058;-83
2022/04/14 05:02:42;;;;;;;56.25;33.17;;;9.80;99.90;;;;;;5004885;28;20153;-83
2022/04/14 05:05:31;;;;;;;54.13;34.70;;;9.90;99.90;;;;;;5018423;28;20050;-84
2022/04/14 05:08:20;;;;;;;60.13;34.22;;;10.00;99.90;;;;;;5003298;28;20176;-84
2022/04/14 05:11:07;;;;;;;52.88;32.75;;;10.00;99.90;;;;;;5003568;28;20058;-83
2022/04/14 05:13:54;;;;;;;59.50;34.75;;;10.00;99.90;;;;;;5008260;28;20060;-84
2022/04/14 05:16:54;;;;;;;62.55;35.10;;;10.00;99.90;;;;;;5008251;28;20061;-84
2022/04/14 05:19:41;;;;;;;61.75;35.08;;;10.10;99.90;;;;;;5011563;28;20049;-83
2022/04/14 05:22:28;;;;;;;60.05;35.58;;;10.10;99.90;;;;;;5002155;28;20053;-83
2022/04/14 05:25:16;;;;;;;56.58;34.55;;;10.10;99.90;;;;;;5006404;28;20050;-84
2022/04/14 05:28:03;;;;;;;59.95;34.00;;;10.10;99.90;;;;;;4990131;28;20451;-84
2022/04/14 05:30:51;;;;;;;67.20;36.65;;;10.10;99.90;;;;;;5007400;28;20113;-87
2022/04/14 05:33:39;;;;;;;57.00;34.40;;;10.20;99.90;;;;;;5023998;28;20104;-88
2022/04/14 05:36:28;;;;;;;58.22;34.72;;;10.30;99.90;;;;;;5013619;28;20045;-88
2022/04/14 05:39:16;;;;;;;67.03;35.65;;;10.40;99.90;;;;;;5008768;28;20058;-87
2022/04/14 05:42:03;;;;;;;62.33;35.60;;;10.50;99.90;;;;;;5004793;28;20216;-89
2022/04/14 05:44:51;;;;;;;58.63;36.50;;;10.60;99.90;;;;;;5001334;28;20196;-87
2022/04/14 05:47:42;;;;;;;49.20;34.55;;;10.70;99.90;;;;;;5000119;28;20049;-87
2022/04/14 05:50:29;;;;;;;53.85;33.90;;;10.90;99.90;;;;;;5011242;28;20046;-87
2022/04/14 05:53:27;;;;;;;56.95;35.28;;;11.00;99.90;;;;;;5006296;28;20063;-86
2022/04/14 05:56:15;;;;;;;53.72;35.60;;;11.10;99.90;;;;;;5001657;28;20038;-87
2022/04/14 05:59:03;;;;;;;55.15;36.00;;;11.20;99.90;;;;;;5004039;28;20046;-86
2022/04/14 06:01:50;;;;;;;57.88;35.15;;;11.30;99.90;;;;;;5013077;28;20042;-86
2022/04/14 06:04:42;;;;;;;53.67;35.25;;;11.50;99.90;;;;;;5003422;28;20347;-85
2022/04/14 06:07:31;;;;;;;55.30;34.42;;;11.60;99.90;;;;;;5010699;28;20072;-86
2022/04/14 06:10:19;;;;;;;53.30;33.33;;;11.60;99.90;;;;;;5002303;28;20046;-85
2022/04/14 06:13:09;;;;;;;56.17;33.17;;;11.60;99.90;;;;;;5009113;28;20057;-84
2022/04/14 06:15:56;;;;;;;54.58;34.10;;;11.70;99.90;;;;;;4997358;28;20121;-84
2022/04/14 06:18:44;;;;;;;65.50;34.28;;;11.80;99.90;;;;;;5010427;28;20053;-86
2022/04/14 06:21:31;;;;;;;56.10;33.88;;;11.90;99.90;;;;;;5009254;28;20038;-84
2022/04/14 06:24:20;;;;;;;50.97;33.08;;;12.00;99.90;;;;;;5005942;28;20042;-85
2022/04/14 06:27:08;;;;;;;53.88;33.22;;;12.10;99.90;;;;;;5003082;28;20395;-85
2022/04/14 06:29:58;;;;;;;56.53;33.00;;;12.30;99.90;;;;;;5009233;28;20057;-85
2022/04/14 06:33:00;;;;;;;52.50;31.15;;;12.50;99.90;;;;;;5006405;28;20046;-84
2022/04/14 06:35:48;;;;;;;49.08;29.77;;;12.70;99.90;;;;;;5015411;28;20423;-85
2022/04/14 06:38:39;;;;;;;44.13;29.48;;;13.10;99.90;;;;;;5006008;28;20042;-86
2022/04/14 06:41:27;;;;;;;41.08;27.63;;;13.30;99.90;;;;;;5001735;28;20042;-87
2022/04/14 06:44:23;;;;;;;39.30;25.63;;;13.70;99.90;;;;;;5010201;28;20484;-86
2022/04/14 06:47:18;;;;;;;35.38;24.48;;;13.90;99.90;;;;;;5017667;28;20138;-86
2022/04/14 06:50:06;;;;;;;38.92;25.92;;;14.00;99.90;;;;;;5002178;28;20073;-85
2022/04/14 06:52:54;;;;;;;35.88;24.35;;;14.30;99.90;;;;;;5005929;28;20098;-85
2022/04/14 06:55:45;;;;;;;37.67;23.55;;;14.60;99.90;;;;;;5005250;28;20045;-86
2022/04/14 06:58:32;;;;;;;34.70;22.25;;;14.90;99.90;;;;;;5003478;28;20039;-85
2022/04/14 07:01:20;;;;;;;33.90;22.48;;;15.30;99.90;;;;;;5007386;28;20069;-84
2022/04/14 07:04:09;;;;;;;35.80;20.02;;;15.60;99.90;;;;;;5007241;28;20133;-86
2022/04/14 07:06:57;;;;;;;33.25;20.20;;;15.80;99.90;;;;;;5001961;28;20050;-85
2022/04/14 07:09:44;;;;;;;30.88;19.55;;;16.40;99.90;;;;;;5007403;28;20109;-85
2022/04/14 07:12:33;;;;;;;32.40;18.98;;;16.60;99.90;;;;;;5007096;28;20149;-86
2022/04/14 07:15:29;;;;;;;32.97;17.65;;;16.60;99.90;;;;;;5006506;28;20470;-87
2022/04/14 07:18:16;;;;;;;24.30;16.85;;;17.10;99.90;;;;;;5006407;28;20050;-87
2022/04/14 07:21:05;;;;;;;27.38;18.58;;;17.40;99.90;;;;;;5007494;28;20294;-86
2022/04/14 07:23:57;;;;;;;31.40;17.02;;;17.40;99.90;;;;;;5004855;28;20046;-85
2022/04/14 07:26:47;;;;;;;29.85;17.05;;;17.80;99.90;;;;;;5002563;28;20057;-86
2022/04/14 07:29:34;;;;;;;27.15;16.83;;;18.00;99.90;;;;;;5005234;28;20065;-85
2022/04/14 07:32:35;;;;;;;23.30;16.27;;;18.00;99.90;;;;;;5010689;28;20050;-86
2022/04/14 07:35:25;;;;;;;27.20;15.75;;;18.30;99.90;;;;;;5004394;28;20044;-86
2022/04/14 07:38:13;;;;;;;30.20;15.80;;;18.40;99.90;;;;;;5005943;28;20053;-87
2022/04/14 07:41:05;;;;;;;26.05;16.45;;;18.50;99.90;;;;;;5001130;28;20106;-85
2022/04/14 07:43:54;;;;;;;22.45;15.70;;;19.00;99.90;;;;;;5002437;28;20038;-86
2022/04/14 07:46:44;;;;;;;22.98;15.88;;;19.00;99.90;;;;;;5002685;28;20046;-84
2022/04/14 07:49:33;;;;;;;24.80;14.32;;;19.20;99.90;;;;;;5008950;28;20053;-84
2022/04/14 07:52:23;;;;;;;22.88;14.77;;;19.60;99.80;;;;;;5000451;28;20129;-85
2022/04/14 07:55:16;;;;;;;23.40;14.68;;;19.90;99.90;;;;;;5007875;28;20046;-86
2022/04/14 07:58:08;;;;;;;24.10;14.70;;;20.10;99.90;;;;;;5000685;28;20053;-86
2022/04/14 08:00:58;;;;;;;21.20;14.13;;;20.00;98.20;;;;;;4999231;28;20336;-86
2022/04/14 08:03:46;;;;;;;21.50;15.07;;;20.30;97.70;;;;;;5001555;28;20053;-84
2022/04/14 08:06:34;;;;;;;23.40;14.55;;;20.10;97.30;;;;;;5003017;28;20082;-84
2022/04/14 08:09:21;;;;;;;22.05;15.25;;;20.10;98.50;;;;;;4997255;28;20061;-87
2022/04/14 08:12:09;;;;;;;24.30;14.93;;;20.60;99.30;;;;;;4999019;28;20367;-83
2022/04/14 08:15:12;;;;;;;23.90;13.82;;;21.10;93.80;;;;;;5005173;28;20054;-84
2022/04/14 08:18:02;;;;;;;23.30;14.13;;;21.60;91.30;;;;;;5002972;28;20072;-83
2022/04/14 08:20:50;;;;;;;20.70;13.88;;;22.20;91.10;;;;;;5001269;28;20081;-82
2022/04/14 08:23:40;;;;;;;24.60;14.15;;;21.80;91.60;;;;;;5005188;28;20065;-82
2022/04/14 08:26:27;;;;;;;20.38;13.73;;;22.50;84.40;;;;;;5006608;28;20046;-85
2022/04/14 08:29:17;;;;;;;23.65;13.13;;;22.50;86.50;;;;;;5010343;28;20046;-85
2022/04/14 08:32:10;;;;;;;19.83;13.27;;;22.80;83.90;;;;;;5004467;28;20045;-84
2022/04/14 08:35:16;;;;;;;18.17;12.43;;;23.00;82.60;;;;;;5013065;28;20050;-84
2022/04/14 08:38:06;;;;;;;21.73;12.98;;;23.30;76.20;;;;;;5006827;28;20284;-84
2022/04/14 08:41:02;;;;;;;20.25;12.45;;;23.40;71.90;;;;;;5003850;28;20046;-85
2022/04/14 08:44:10;;;;;;;19.98;12.77;;;23.50;75.30;;;;;;4997160;28;20107;-86
2022/04/14 08:46:59;;;;;;;17.70;12.52;;;23.40;73.60;;;;;;5014347;28;20050;-86
2022/04/14 08:49:48;;;;;;;22.92;12.07;;;23.10;73.50;;;;;;5014050;28;20470;-85
2022/04/14 08:52:39;;;;;;;18.67;12.40;;;23.00;75.60;;;;;;5002973;28;20046;-87
2022/04/14 08:55:30;;;;;;;21.98;11.70;;;23.10;75.30;;;;;;5020436;28;20104;-88
2022/04/14 08:58:19;;;;;;;20.10;12.37;;;23.60;73.30;;;;;;5005087;28;20499;-84
2022/04/14 09:01:07;;;;;;;19.88;11.68;;;24.10;67.80;;;;;;5007048;28;20108;-87
2022/04/14 09:04:11;;;;;;;16.50;10.88;;;24.80;67.50;;;;;;5013616;28;20055;-85
2022/04/14 09:07:00;;;;;;;21.13;12.38;;;25.10;60.20;;;;;;5009664;28;20041;-86
2022/04/14 09:09:51;;;;;;;22.60;11.05;;;25.10;62.20;;;;;;5022990;28;20060;-84
2022/04/14 09:12:39;;;;;;;19.05;10.75;;;24.80;63.00;;;;;;5007959;28;20072;-86
2022/04/14 09:15:29;;;;;;;15.65;11.00;;;25.00;65.00;;;;;;5018924;28;20077;-87
2022/04/14 09:18:17;;;;;;;20.38;10.88;;;24.70;61.60;;;;;;5010440;28;20055;-86
2022/04/14 09:21:08;;;;;;;20.55;10.55;;;24.60;61.70;;;;;;5010168;28;20117;-88
2022/04/14 09:24:00;;;;;;;19.98;9.90;;;25.10;59.50;;;;;;5005784;28;20065;-89
2022/04/14 09:26:51;;;;;;;13.15;9.93;;;25.40;59.10;;;;;;5007054;28;20058;-86
2022/04/14 09:29:47;;;;;;;17.92;9.40;;;25.90;60.00;;;;;;5006100;28;20360;-88
2022/04/14 09:32:36;;;;;;;15.85;10.45;;;26.50;54.90;;;;;;5007189;28;20046;-87
2022/04/14 09:35:26;;;;;;;15.93;9.82;;;27.20;52.30;;;;;;5009783;28;20052;-88
2022/04/14 09:38:14;;;;;;;17.88;9.65;;;27.70;51.20;;;;;;5010949;28;20067;-88
2022/04/14 09:41:01;;;;;;;17.73;9.70;;;28.10;50.70;;;;;;5001674;28;20211;-86
2022/04/14 09:44:03;;;;;;;14.05;9.90;;;28.30;49.10;;;;;;5009690;28;20778;-88
2022/04/14 09:46:51;;;;;;;15.30;9.35;;;27.80;50.70;;;;;;5006941;28;20755;-85
2022/04/14 09:49:42;;;;;;;16.60;10.25;;;27.70;48.70;;;;;;5009805;28;20471;-83
2022/04/14 09:52:32;;;;;;;15.10;9.93;;;28.00;49.90;;;;;;5013341;28;20038;-87
2022/04/14 09:55:20;;;;;;;14.65;9.15;;;27.60;49.50;;;;;;5001774;28;20050;-85
2022/04/14 09:58:12;;;;;;;17.27;9.27;;;27.60;51.10;;;;;;5010443;28;20042;-84
2022/04/14 10:01:02;;;;;;;19.58;10.77;;;27.80;52.10;;;;;;5006592;28;20058;-84
2022/04/14 10:03:51;;;;;;;14.55;10.95;;;27.70;53.00;;;;;;5010503;28;20093;-84
2022/04/14 10:07:01;;;;;;;16.25;9.55;;;27.20;52.50;;;;;;5005484;28;20056;-87
2022/04/14 10:09:50;;;;;;;16.77;10.00;;;27.90;49.40;;;;;;5006335;28;20050;-87
2022/04/14 10:12:40;;;;;;;25.40;9.98;;;27.90;47.90;;;;;;5011887;28;20050;-86
2022/04/14 10:15:27;;;;;;;18.90;10.93;;;27.50;49.50;;;;;;5002376;28;20128;-84
2022/04/14 10:18:18;;;;;;;15.35;10.98;;;27.30;48.60;;;;;;5008042;28;20054;-85
2022/04/14 10:21:06;;;;;;;12.88;10.25;;;27.50;48.40;;;;;;5016095;28;20033;-87
2022/04/14 10:23:55;;;;;;;18.10;11.35;;;27.00;49.20;;;;;;5006542;28;20073;-86
2022/04/14 10:26:43;;;;;;;15.20;10.52;;;27.20;51.40;;;;;;5010756;28;20057;-88
2022/04/14 10:29:32;;;;;;;19.40;10.95;;;28.30;49.10;;;;;;5014448;28;20348;-86
2022/04/14 10:32:21;;;;;;;18.45;10.48;;;28.60;46.10;;;;;;5013116;28;20049;-86
2022/04/14 10:35:13;;;;;;;16.08;9.93;;;28.10;49.50;;;;;;5005746;28;20367;-86
2022/04/14 10:38:13;;;;;;;16.15;10.27;;;27.80;52.00;;;;;;5004614;28;20064;-84
2022/04/14 10:41:13;;;;;;;18.73;10.52;;;28.10;50.10;;;;;;5009471;28;20047;-86
2022/04/14 10:44:04;;;;;;;20.10;8.80;;;28.20;51.00;;;;;;5003572;28;20046;-84
2022/04/14 10:46:52;;;;;;;29.75;10.10;;;29.30;48.50;;;;;;5002016;28;20054;-85
2022/04/14 10:49:40;;;;;;;18.92;11.15;;;29.10;49.50;;;;;;5004055;28;20124;-85
2022/04/14 10:53:06;;;;;;;21.95;10.32;;;29.00;49.00;;;;;;5007904;28;20451;-85
2022/04/14 10:55:55;;;;;;;17.35;9.75;;;29.70;46.10;;;;;;5003770;28;20099;-88
2022/04/14 10:58:53;;;;;;;22.92;9.82;;;30.50;45.90;;;;;;4997968;28;20052;-86
2022/04/14 11:01:47;;;;;;;20.73;9.23;;;31.30;43.90;;;;;;5011269;28;20053;-86
2022/04/14 11:04:52;;;;;;;16.35;10.32;;;30.60;43.70;;;;;;5013798;28;20076;-87
2022/04/14 11:07:42;;;;;;;14.25;9.65;;;29.80;46.30;;;;;;5008290;28;20064;-89
2022/04/14 11:10:30;;;;;;;16.15;9.27;;;30.40;45.20;;;;;;5009434;28;20049;-88
2022/04/14 11:13:19;;;;;;;17.02;9.80;;;30.60;43.40;;;;;;5010502;28;20053;-88
2022/04/14 11:16:47;;;;;;;19.88;10.52;;;30.40;43.70;;;;;;5005317;28;20183;-88
2022/04/14 11:19:35;;;;;;;14.85;9.07;;;30.10;45.70;;;;;;5008841;28;20044;-89
2022/04/14 11:22:22;;;;;;;18.17;8.00;;;29.30;46.50;;;;;;5015883;28;20054;-89
2022/04/14 11:25:46;;;;;;;14.50;8.70;;;29.20;45.80;;;;;;5010808;28;20041;-86
2022/04/14 11:28:36;;;;;;;17.48;8.82;;;29.20;44.80;;;;;;5002436;28;20188;-88
2022/04/14 11:31:29;;;;;;;19.90;8.85;;;29.00;45.70;;;;;;5003188;28;20053;-86
2022/04/14 11:34:31;;;;;;;19.48;9.23;;;28.10;46.70;;;;;;4995886;28;20813;-86
2022/04/14 11:37:43;;;;;;;15.73;8.93;;;27.90;47.00;;;;;;5010203;28;20053;-85
2022/04/14 11:40:30;;;;;;;14.80;8.70;;;27.60;47.50;;;;;;5011976;28;20049;-87
2022/04/14 11:43:18;;;;;;;15.65;8.45;;;28.20;46.20;;;;;;5008527;28;20053;-87
2022/04/14 11:46:26;;;;;;;34.20;13.60;;;28.20;46.50;;;;;;5015968;28;20076;-86
2022/04/14 11:49:21;;;;;;;17.27;9.60;;;28.50;47.20;;;;;;5009731;28;20080;-86
2022/04/14 11:52:09;;;;;;;14.77;9.55;;;28.30;47.30;;;;;;5004524;28;20046;-86
2022/04/14 11:55:00;;;;;;;24.13;9.07;;;28.10;46.60;;;;;;5006799;28;20077;-82
2022/04/14 11:57:48;;;;;;;20.60;9.52;;;28.00;47.40;;;;;;5017203;28;20073;-87
2022/04/14 12:00:49;;;;;;;17.35;8.43;;;27.60;49.00;;;;;;5011333;28;20069;-87
2022/04/14 12:03:36;;;;;;;18.03;8.50;;;28.00;47.60;;;;;;5002146;28;20043;-87
2022/04/14 12:06:27;;;;;;;15.00;9.00;;;29.00;47.60;;;;;;5015071;28;20046;-87
2022/04/14 12:09:21;;;;;;;22.52;10.23;;;30.20;44.30;;;;;;5014991;28;20091;-86
2022/04/14 12:12:21;;;;;;;16.73;10.10;;;30.70;43.50;;;;;;5007430;28;20060;-87
2022/04/14 12:15:09;;;;;;;18.70;9.93;;;30.80;43.60;;;;;;5001671;28;20088;-86
2022/04/14 12:18:15;;;;;;;21.30;10.88;;;29.10;45.90;;;;;;5002904;28;20056;-85
2022/04/14 12:21:07;;;;;;;16.10;9.98;;;29.20;45.00;;;;;;5013063;28;20050;-87
2022/04/14 12:23:59;;;;;;;14.70;9.52;;;29.50;44.50;;;;;;5008527;28;20048;-87
2022/04/14 12:26:46;;;;;;;;;;;30.10;45.50;;;;;;5002480;28;20549;-87
2022/04/14 12:29:41;;;;;;;14.80;9.02;;;30.90;42.10;;;;;;5016562;28;20011;-87
2022/04/14 12:32:29;;;;;;;14.27;9.70;;;30.80;43.00;;;;;;5007492;28;20060;-89
2022/04/14 12:35:32;;;;;;;29.00;10.35;;;31.60;41.10;;;;;;5005431;28;20109;-87
2022/04/14 12:38:28;;;;;;;17.30;10.60;;;31.20;42.10;;;;;;5005044;28;20050;-88
2022/04/14 12:41:22;;;;;;;16.95;11.15;;;30.10;43.30;;;;;;5013999;28;20525;-89
2022/04/14 12:44:16;;;;;;;15.85;11.05;;;29.30;45.20;;;;;;5009171;28;20490;-88
2022/04/14 12:47:07;;;;;;;17.30;10.07;;;28.30;47.20;;;;;;5004734;28;20049;-87
2022/04/14 12:50:02;;;;;;;18.65;10.05;;;28.50;48.70;;;;;;5010676;28;20038;-87
2022/04/14 12:52:57;;;;;;;15.40;10.15;;;29.10;46.40;;;;;;4994311;28;20041;-87
2022/04/14 12:55:44;;;;;;;15.82;10.60;;;29.40;45.20;;;;;;5007714;28;20041;-87
2022/04/14 12:58:32;;;;;;;16.25;11.00;;;28.80;47.30;;;;;;5003330;28;20053;-88
2022/04/14 13:01:22;;;;;;;21.05;12.60;;;28.60;47.00;;;;;;5010238;28;20069;-86
2022/04/14 13:04:12;;;;;;;16.88;11.88;;;28.00;47.50;;;;;;5009630;28;20045;-86
2022/04/14 13:07:06;;;;;;;20.30;12.80;;;27.70;49.80;;;;;;5011462;28;20085;-87
2022/04/14 13:09:58;;;;;;;18.33;12.25;;;27.00;50.20;;;;;;5006834;28;20046;-89
2022/04/14 13:12:47;;;;;;;19.50;12.13;;;27.10;50.80;;;;;;5005105;28;20126;-87
2022/04/14 13:15:37;;;;;;;17.73;11.85;;;28.30;46.90;;;;;;5005786;28;20174;-87
2022/04/14 13:18:27;;;;;;;20.73;12.05;;;27.40;48.60;;;;;;5005767;28;20050;-89
2022/04/14 13:21:23;;;;;;;18.10;12.93;;;25.70;50.50;;;;;;5006625;28;20050;-86
2022/04/14 13:24:11;;;;;;;16.42;12.43;;;24.80;53.00;;;;;;5013720;28;20056;-88
2022/04/14 13:27:01;;;;;;;16.92;12.77;;;23.80;55.60;;;;;;5008137;28;20061;-88
2022/04/14 13:29:51;;;;;;;18.17;12.75;;;23.40;57.10;;;;;;5011774;28;20069;-88
2022/04/14 13:32:39;;;;;;;20.00;13.05;;;24.60;56.00;;;;;;5011447;28;20053;-89
2022/04/14 13:35:27;;;;;;;22.35;12.40;;;26.20;52.00;;;;;;5004189;28;20050;-88
2022/04/14 13:38:17;;;;;;;21.73;12.82;;;26.30;54.30;;;;;;5011922;28;20129;-88
2022/04/14 13:41:15;;;;;;;19.30;12.13;;;27.20;50.30;;;;;;5018298;28;20046;-88
2022/04/14 13:44:41;;;;;;;21.27;12.75;;;28.40;48.80;;;;;;5009492;28;20031;-86
2022/04/14 13:47:34;;;;;;;22.05;13.30;;;28.60;47.90;;;;;;5009001;28;20050;-87
2022/04/14 13:50:27;;;;;;;21.60;12.73;;;28.90;46.40;;;;;;5013976;28;20053;-86
2022/04/14 13:53:16;;;;;;;18.15;12.55;;;28.60;47.90;;;;;;5022554;28;20100;-86
2022/04/14 13:56:05;;;;;;;20.33;12.80;;;28.20;47.20;;;;;;5009494;28;20050;-86
2022/04/14 13:58:52;;;;;;;25.92;12.80;;;28.20;47.30;;;;;;5005923;28;20073;-89
2022/04/14 14:01:41;;;;;;;24.08;13.52;;;27.80;47.90;;;;;;5013774;28;20042;-87
2022/04/14 14:04:31;;;;;;;19.60;12.23;;;27.00;50.30;;;;;;5011240;28;20443;-87
2022/04/14 14:07:18;;;;;;;18.42;13.27;;;27.40;50.20;;;;;;5012273;28;20443;-89
2022/04/14 14:10:06;;;;;;;21.75;13.05;;;27.80;48.50;;;;;;5010560;28;20109;-88
2022/04/14 14:12:57;;;;;;;19.60;14.52;;;27.80;47.90;;;;;;5002779;28;20057;-85
2022/04/14 14:15:45;;;;;;;22.30;13.93;;;27.20;51.20;;;;;;5000120;28;20428;-85
2022/04/14 14:18:34;;;;;;;24.70;15.27;;;27.30;48.60;;;;;;5004259;28;20053;-87
2022/04/14 14:21:24;;;;;;;22.48;13.90;;;27.60;49.40;;;;;;5008357;28;20080;-87
2022/04/14 14:24:11;;;;;;;20.98;14.60;;;27.80;48.10;;;;;;5006622;28;20058;-86
2022/04/14 14:27:01;;;;;;;19.83;14.60;;;28.10;47.50;;;;;;5016373;28;20057;-86
2022/04/14 14:29:49;;;;;;;18.63;13.18;;;27.90;47.10;;;;;;5008304;28;20069;-87
2022/04/14 14:32:36;;;;;;;22.25;14.85;;;27.40;48.30;;;;;;5007407;28;20049;-88
2022/04/14 14:35:24;;;;;;;22.17;14.18;;;25.80;51.20;;;;;;5006267;28;20124;-88
2022/04/14 14:38:15;;;;;;;24.80;13.25;;;24.60;54.80;;;;;;5002904;28;20081;-86
2022/04/14 14:41:03;;;;;;;17.95;13.13;;;23.60;55.70;;;;;;5006293;28;20053;-88
2022/04/14 14:43:51;;;;;;;20.77;14.35;;;23.60;54.90;;;;;;5007471;28;20106;-89
2022/04/14 14:46:41;;;;;;;21.02;13.63;;;24.10;55.40;;;;;;5007633;28;20045;-87
2022/04/14 14:49:33;;;;;;;25.40;15.10;;;24.80;54.20;;;;;;5009159;28;20348;-85
2022/04/14 14:52:20;;;;;;;20.80;14.75;;;24.80;53.10;;;;;;5020527;28;20045;-87